Time;durP1;ratioP1;P1;durP2;ratioP2;P2;SDS_P1;SDS_P2;PMS_P1;PMS_P2;Temp;Humidity;BMP_temperature;BMP_pressure;BME280_temperature;BME280_humidity;BME280_pressure;Samples;Min_cycle;Max_cycle;Signal;HPM_P1;HPM_P2
2022/07/28 00:01:58;;;;;;;3.50;1.70;;;;;;;19.40;50.82;99062.38;5212090;28;20255;-69
2022/07/28 00:04:48;;;;;;;3.47;1.55;;;;;;;19.58;50.31;99069.91;5200675;28;20045;-69
2022/07/28 00:07:38;;;;;;;2.95;1.40;;;;;;;19.39;51.10;99053.47;5196326;28;20056;-69
2022/07/28 00:10:30;;;;;;;4.28;1.67;;;;;;;19.24;51.42;99048.25;5196494;28;20049;-69
2022/07/28 00:13:21;;;;;;;2.45;1.20;;;;;;;19.30;51.72;99070.78;5195957;28;20154;-69
2022/07/28 00:16:11;;;;;;;7.18;1.67;;;;;;;19.15;52.51;99065.53;5189930;28;20729;-69
2022/07/28 00:19:02;;;;;;;10.38;1.70;;;;;;;19.35;51.05;99057.59;5214882;28;21520;-69
2022/07/28 00:21:52;;;;;;;3.15;1.33;;;;;;;19.39;50.58;99055.34;5200599;28;20049;-69
2022/07/28 00:24:43;;;;;;;2.70;1.33;;;;;;;19.36;49.51;99047.66;5191660;28;20053;-69
2022/07/28 00:27:33;;;;;;;2.55;1.30;;;;;;;19.39;50.60;99050.78;5200185;28;20056;-69
2022/07/28 00:30:23;;;;;;;3.53;1.30;;;;;;;19.34;49.47;99049.75;5198044;28;20126;-69
2022/07/28 00:33:13;;;;;;;4.15;1.35;;;;;;;19.23;50.78;99041.19;5191682;28;20052;-69
2022/07/28 00:36:04;;;;;;;7.50;1.33;;;;;;;19.24;49.34;99042.03;5196477;28;20150;-69
2022/07/28 00:38:59;;;;;;;4.90;1.42;;;;;;;19.04;50.37;99046.44;5199663;28;20071;-69
2022/07/28 00:41:50;;;;;;;5.63;1.10;;;;;;;18.84;50.43;99035.56;5201070;28;20060;-69
2022/07/28 00:44:41;;;;;;;4.75;1.42;;;;;;;18.89;51.51;99042.00;5194683;28;20060;-69
2022/07/28 00:47:31;;;;;;;5.20;1.60;;;;;;;19.08;50.88;99035.13;5189223;28;20081;-69
2022/07/28 00:50:23;;;;;;;3.83;1.67;;;;;;;18.87;52.02;99040.53;5194825;28;20424;-69
2022/07/28 00:53:13;;;;;;;4.13;1.20;;;;;;;18.87;51.19;99045.91;5196815;28;20171;-70
2022/07/28 00:56:05;;;;;;;3.22;1.50;;;;;;;18.83;51.14;99040.09;5197316;28;20059;-70
2022/07/28 00:58:56;;;;;;;4.00;1.50;;;;;;;18.59;52.46;99027.09;5191316;28;20479;-69
2022/07/28 01:01:47;;;;;;;4.35;1.60;;;;;;;18.73;51.97;99045.00;5212316;28;20060;-70
2022/07/28 01:04:38;;;;;;;4.75;1.30;;;;;;;18.86;51.31;99041.56;5197732;28;20264;-70
2022/07/28 01:07:44;;;;;;;3.70;1.50;;;;;;;18.61;51.79;99036.63;5193016;28;20100;-70
2022/07/28 01:10:50;;;;;;;4.18;1.23;;;;;;;18.56;51.56;99036.34;5192002;28;20519;-70
2022/07/28 01:13:49;;;;;;;1.88;1.27;;;;;;;18.61;51.36;99023.19;5206627;28;20089;-70
2022/07/28 01:17:00;;;;;;;3.47;1.30;;;;;;;18.61;50.95;99019.66;5192587;28;20570;-70
2022/07/28 01:20:10;;;;;;;5.00;1.48;;;;;;;18.49;51.87;99011.31;5186940;28;20120;-70
2022/07/28 01:23:15;;;;;;;3.45;1.40;;;;;;;18.72;51.85;99024.53;5192499;28;20060;-69
2022/07/28 01:26:23;;;;;;;4.20;1.67;;;;;;;18.41;52.82;99030.22;5192235;28;20618;-70
2022/07/28 01:29:56;;;;;;;2.13;1.50;;;;;;;18.22;52.54;99021.81;5192702;28;20057;-70
2022/07/28 01:32:56;;;;;;;6.18;1.38;;;;;;;18.16;53.28;99016.41;5192400;28;20049;-69
2022/07/28 01:35:53;;;;;;;2.55;1.33;;;;;;;18.41;52.69;99024.84;5197227;28;20052;-69
2022/07/28 01:38:46;;;;;;;5.82;1.67;;;;;;;18.20;52.15;99018.50;5195388;28;20633;-69
2022/07/28 01:41:37;;;;;;;2.60;1.40;;;;;;;18.09;52.88;99010.97;5202864;28;20049;-70
2022/07/28 01:44:30;;;;;;;5.85;1.30;;;;;;;17.93;53.21;99021.94;5195389;28;20067;-69
2022/07/28 01:47:22;;;;;;;4.45;1.30;;;;;;;18.54;52.25;99020.47;5194844;28;20139;-69
2022/07/28 01:50:15;;;;;;;4.57;1.58;;;;;;;18.13;53.29;99012.22;5197966;28;20444;-69
2022/07/28 01:53:09;;;;;;;4.95;1.40;;;;;;;17.89;54.40;99015.31;5199899;28;20046;-69
2022/07/28 01:56:03;;;;;;;;;;;;;;;17.97;53.93;99009.81;5194625;28;20068;-69
2022/07/28 01:58:56;;;;;;;6.90;1.30;;;;;;;17.89;53.90;99004.56;5200782;28;19936;-69
2022/07/28 02:01:49;;;;;;;2.45;1.20;;;;;;;18.01;53.80;99011.06;5196927;28;20146;-69
2022/07/28 02:04:42;;;;;;;2.47;1.30;;;;;;;17.59;54.79;98999.25;5201628;28;20069;-69
2022/07/28 02:07:34;;;;;;;2.60;1.30;;;;;;;17.76;55.45;99007.91;5198840;28;20080;-69
2022/07/28 02:10:26;;;;;;;2.67;1.38;;;;;;;18.03;54.20;98999.13;5197441;28;20057;-69
2022/07/28 02:13:16;;;;;;;3.55;1.48;;;;;;;18.16;53.11;99011.03;5197466;28;20057;-69
2022/07/28 02:16:09;;;;;;;1.98;1.20;;;;;;;17.96;54.04;98998.25;5192373;28;20569;-69
2022/07/28 02:19:01;;;;;;;2.40;1.87;;;;;;;17.75;54.13;98999.03;5198855;28;20179;-69
2022/07/28 02:21:53;;;;;;;5.57;1.25;;;;;;;17.90;54.11;98995.50;5200165;28;20057;-69
2022/07/28 02:24:45;;;;;;;3.67;1.25;;;;;;;17.83;54.75;98998.94;5199547;28;20056;-70
2022/07/28 02:27:40;;;;;;;3.13;1.40;;;;;;;17.76;55.01;98987.31;5197441;28;20506;-69
2022/07/28 02:30:44;;;;;;;3.03;1.60;;;;;;;17.70;54.72;98997.94;5202227;28;20042;-69
2022/07/28 02:33:36;;;;;;;;;;;;;;;17.75;54.71;98999.03;5200667;28;20249;-69
2022/07/28 02:36:53;;;;;;;5.00;1.50;;;;;;;17.77;54.73;98994.31;5199804;28;20431;-69
2022/07/28 02:39:49;;;;;;;4.82;1.60;;;;;;;17.80;53.61;98988.59;5197331;28;20045;-69
2022/07/28 02:42:52;;;;;;;3.75;1.40;;;;;;;17.56;54.82;98980.88;5198955;28;20171;-69
2022/07/28 02:45:45;;;;;;;5.38;1.58;;;;;;;17.46;54.93;98983.84;5198186;28;20148;-69
2022/07/28 02:48:38;;;;;;;5.47;1.30;;;;;;;17.53;54.78;98982.06;5197601;28;20049;-69
2022/07/28 02:51:32;;;;;;;8.15;2.08;;;;;;;17.74;53.84;98983.94;5197367;28;20057;-69
2022/07/28 02:54:24;;;;;;;5.78;1.80;;;;;;;17.69;53.88;98989.06;5196512;28;20057;-69
2022/07/28 02:57:17;;;;;;;3.47;1.45;;;;;;;17.87;52.98;98987.81;5198513;28;20540;-69
2022/07/28 03:00:08;;;;;;;8.13;1.30;;;;;;;17.75;52.89;98979.44;5198308;28;20564;-69
2022/07/28 03:02:59;;;;;;;3.95;1.40;;;;;;;17.66;53.84;98983.25;5199512;28;20068;-70
2022/07/28 03:05:50;;;;;;;2.88;1.50;;;;;;;17.55;54.12;98976.53;5196786;28;20046;-70
2022/07/28 03:08:40;;;;;;;3.20;1.60;;;;;;;17.51;54.89;98984.09;5200732;28;20416;-69
2022/07/28 03:11:30;;;;;;;3.58;1.60;;;;;;;17.38;54.85;98963.38;5195974;28;20049;-69
2022/07/28 03:14:21;;;;;;;3.88;1.38;;;;;;;17.35;55.09;98982.50;5192460;28;20564;-69
2022/07/28 03:17:11;;;;;;;4.20;1.33;;;;;;;17.43;54.31;98983.41;5191558;28;20052;-70
2022/07/28 03:20:01;;;;;;;3.38;1.25;;;;;;;17.59;53.52;98977.81;5197168;28;20549;-69
2022/07/28 03:22:51;;;;;;;5.55;1.58;;;;;;;17.45;53.67;98981.34;5199671;28;20061;-69
2022/07/28 03:25:47;;;;;;;2.75;1.40;;;;;;;17.62;53.87;98974.75;5194604;28;20049;-69
2022/07/28 03:28:38;;;;;;;4.38;1.38;;;;;;;17.53;54.14;98979.41;5198276;28;20091;-70
2022/07/28 03:31:30;;;;;;;3.92;1.63;;;;;;;17.49;54.25;98988.00;5195930;28;20323;-69
2022/07/28 03:34:21;;;;;;;8.63;1.77;;;;;;;17.36;54.31;98984.16;5194571;28;20472;-69
2022/07/28 03:37:15;;;;;;;4.70;1.77;;;;;;;17.57;54.70;98985.22;5193524;28;20061;-69
2022/07/28 03:40:08;;;;;;;5.47;1.70;;;;;;;17.43;54.27;98962.78;5197042;28;20060;-69
2022/07/28 03:43:05;;;;;;;2.92;1.52;;;;;;;17.25;54.87;98971.25;5189755;28;20045;-69
2022/07/28 03:45:55;;;;;;;3.65;1.50;;;;;;;17.36;54.27;98989.50;5200298;28;20064;-69
2022/07/28 03:48:45;;;;;;;4.05;1.85;;;;;;;17.26;54.85;98999.69;5201428;28;20061;-70
2022/07/28 03:51:35;;;;;;;3.17;1.60;;;;;;;17.02;55.12;98984.75;5201477;28;20045;-69
2022/07/28 03:54:25;;;;;;;2.35;1.60;;;;;;;17.12;55.05;98989.81;5198059;28;20068;-69
2022/07/28 03:57:16;;;;;;;8.80;2.03;;;;;;;17.05;55.25;98991.56;5198390;28;20054;-69
2022/07/28 04:00:08;;;;;;;3.10;1.55;;;;;;;17.00;55.38;98993.97;5199080;28;20045;-69
2022/07/28 04:03:00;;;;;;;3.15;1.70;;;;;;;17.06;54.56;98994.06;5211200;28;20049;-69
2022/07/28 04:05:50;;;;;;;3.63;1.70;;;;;;;17.06;55.60;98991.41;5195017;28;21567;-69
2022/07/28 04:08:42;;;;;;;5.22;1.40;;;;;;;16.90;55.41;98992.41;5194451;28;20046;-70
2022/07/28 04:11:32;;;;;;;4.30;1.58;;;;;;;16.95;55.70;98991.00;5194847;28;20105;-69
2022/07/28 04:14:22;;;;;;;2.80;1.63;;;;;;;16.98;56.42;99002.19;5200455;28;20103;-69
2022/07/28 04:17:13;;;;;;;4.05;1.90;;;;;;;16.86;55.82;98996.47;5200481;28;20059;-69
2022/07/28 04:20:04;;;;;;;6.00;2.00;;;;;;;16.78;56.20;99007.25;5201324;28;20048;-69
2022/07/28 04:22:55;;;;;;;2.78;1.60;;;;;;;16.98;55.69;99001.34;5197893;28;20067;-69
2022/07/28 04:25:45;;;;;;;4.10;1.58;;;;;;;17.13;55.32;99010.22;5198879;28;20178;-69
2022/07/28 04:28:35;;;;;;;4.15;1.50;;;;;;;17.08;55.26;99009.94;5200875;28;20045;-69
2022/07/28 04:31:25;;;;;;;2.75;1.83;;;;;;;17.13;56.04;99005.69;5200793;28;20248;-69
2022/07/28 04:34:16;;;;;;;4.85;1.88;;;;;;;17.32;55.46;98993.59;5195262;28;20060;-69
2022/07/28 04:37:08;;;;;;;4.63;1.70;;;;;;;17.45;56.07;99000.97;5198027;28;20046;-69
2022/07/28 04:39:59;;;;;;;3.53;1.70;;;;;;;17.48;55.82;98997.91;5196678;28;20041;-69
2022/07/28 04:42:49;;;;;;;4.97;2.08;;;;;;;17.49;56.51;99002.25;5198620;28;20049;-68
2022/07/28 04:45:39;;;;;;;5.55;1.60;;;;;;;17.31;57.05;98997.25;5200831;28;20052;-68
2022/07/28 04:48:44;;;;;;;4.35;1.90;;;;;;;17.49;57.49;99006.78;5189843;28;20110;-68
2022/07/28 04:51:34;;;;;;;6.43;1.83;;;;;;;17.44;56.40;98998.47;5195997;28;20432;-68
2022/07/28 04:54:25;;;;;;;3.58;1.58;;;;;;;17.62;55.32;99001.56;5195103;28;20534;-68
2022/07/28 04:57:15;;;;;;;5.35;1.70;;;;;;;17.75;54.12;98992.84;5196325;28;20057;-68
2022/07/28 05:00:13;;;;;;;5.95;1.77;;;;;;;17.91;53.00;98999.84;5196655;28;20099;-71
2022/07/28 05:03:04;;;;;;;4.70;1.55;;;;;;;17.98;53.04;98995.34;5199463;28;20085;-69
2022/07/28 05:05:54;;;;;;;3.83;1.67;;;;;;;17.95;53.13;99001.13;5193013;28;20107;-68
2022/07/28 05:08:44;;;;;;;4.55;1.80;;;;;;;18.03;53.73;99006.34;5196687;28;20128;-69
2022/07/28 05:11:35;;;;;;;6.68;1.75;;;;;;;18.00;53.84;99004.88;5198630;28;20052;-67
2022/07/28 05:14:25;;;;;;;5.88;1.85;;;;;;;18.15;53.14;99014.75;5197136;28;20058;-70
2022/07/28 05:17:15;;;;;;;12.85;1.88;;;;;;;18.12;52.81;99007.91;5197699;28;20049;-69
2022/07/28 05:20:07;;;;;;;8.60;1.63;;;;;;;17.93;54.16;99008.53;5197176;28;20052;-70
2022/07/28 05:22:57;;;;;;;9.00;2.25;;;;;;;18.18;52.96;99012.50;5208151;28;20060;-70
2022/07/28 05:25:50;;;;;;;11.43;2.17;;;;;;;18.22;51.92;99008.41;5197099;28;20144;-69
2022/07/28 05:28:40;;;;;;;4.15;1.80;;;;;;;18.21;52.86;99001.38;5189454;28;20540;-69
2022/07/28 05:31:30;;;;;;;8.18;2.08;;;;;;;18.19;52.26;99003.41;5199655;28;20044;-69
2022/07/28 05:34:20;;;;;;;6.05;2.13;;;;;;;18.44;52.71;99003.84;5195748;28;20045;-68
2022/07/28 05:37:11;;;;;;;11.65;1.80;;;;;;;18.53;51.50;98999.16;5197800;28;20053;-68
2022/07/28 05:40:12;;;;;;;10.98;1.70;;;;;;;18.61;51.64;99000.84;5199764;28;20048;-68
2022/07/28 05:43:02;;;;;;;6.93;1.60;;;;;;;18.55;51.89;98999.81;5196403;28;20065;-70
2022/07/28 05:45:53;;;;;;;5.13;2.00;;;;;;;18.81;53.01;99006.41;5210156;28;20060;-70
2022/07/28 05:48:45;;;;;;;5.72;1.70;;;;;;;18.72;51.98;99001.19;5198386;28;20056;-70
2022/07/28 05:51:35;;;;;;;5.43;2.10;;;;;;;18.88;51.01;99005.44;5198329;28;20041;-71
2022/07/28 05:54:30;;;;;;;13.68;2.00;;;;;;;18.79;52.30;99006.59;5199429;28;20446;-69
2022/07/28 05:57:21;;;;;;;13.07;2.38;;;;;;;19.01;51.21;99010.06;5198826;28;20053;-68
2022/07/28 06:00:15;;;;;;;11.93;1.92;;;;;;;19.04;50.09;99014.19;5197910;28;20439;-70
2022/07/28 06:03:06;;;;;;;7.00;1.80;;;;;;;19.04;50.44;99008.81;5198242;28;20403;-67
2022/07/28 06:05:56;;;;;;;14.93;2.40;;;;;;;19.12;51.50;99014.88;5197288;28;20315;-69
2022/07/28 06:09:04;;;;;;;15.70;2.25;;;;;;;19.35;52.36;99011.88;5211960;28;20128;-70
2022/07/28 06:11:55;;;;;;;18.27;2.30;;;;;;;19.35;51.42;99008.38;5197719;28;20049;-69
2022/07/28 06:14:45;;;;;;;14.35;2.47;;;;;;;19.51;51.32;99002.66;5197401;28;20431;-70
2022/07/28 06:17:35;;;;;;;13.18;2.33;;;;;;;19.57;51.39;98996.47;5175679;28;21278;-71
2022/07/28 06:20:26;;;;;;;11.27;2.25;;;;;;;19.78;50.16;98997.38;5182590;28;20045;-69
2022/07/28 06:23:20;;;;;;;8.27;2.45;;;;;;;19.74;50.01;98996.97;5186255;28;20053;-71
2022/07/28 06:26:10;;;;;;;6.95;2.10;;;;;;;19.75;51.11;99011.25;5181990;28;20050;-71
2022/07/28 06:29:01;;;;;;;6.97;2.38;;;;;;;19.96;50.60;99005.69;5191030;28;20057;-70
2022/07/28 06:31:51;;;;;;;8.82;2.20;;;;;;;19.97;49.91;98988.53;5184690;28;20052;-70
2022/07/28 06:34:41;;;;;;;9.77;2.55;;;;;;;20.25;50.17;98998.28;5174777;28;20056;-70
2022/07/28 06:37:32;;;;;;;19.70;2.95;;;;;;;20.30;49.93;98988.56;5173361;28;20057;-70
2022/07/28 06:40:22;;;;;;;6.18;2.28;;;;;;;20.52;50.00;99002.66;5169251;28;20065;-70
2022/07/28 06:43:13;;;;;;;8.82;2.70;;;;;;;20.54;50.18;99000.59;5169040;28;20527;-68
2022/07/28 06:46:03;;;;;;;8.75;2.53;;;;;;;20.91;48.02;99000.97;5177831;28;20069;-69
2022/07/28 06:48:53;;;;;;;8.10;2.25;;;;;;;21.05;48.52;99007.97;5197318;28;20431;-69
2022/07/28 06:51:44;;;;;;;8.00;2.58;;;;;;;21.08;48.66;99006.72;5179052;28;20503;-68
2022/07/28 06:54:35;;;;;;;7.53;2.50;;;;;;;21.14;49.15;98989.72;5182862;28;20132;-68
2022/07/28 06:57:26;;;;;;;10.75;2.80;;;;;;;21.67;47.04;99000.31;5185126;28;20114;-69
2022/07/28 07:00:23;;;;;;;7.10;2.85;;;;;;;21.57;50.01;98998.09;5177374;28;20242;-69
2022/07/28 07:03:13;;;;;;;6.07;2.60;;;;;;;21.61;47.87;99001.19;5170364;28;20053;-68
2022/07/28 07:06:03;;;;;;;8.63;3.08;;;;;;;22.03;46.93;98991.59;5185613;28;20052;-68
2022/07/28 07:08:54;;;;;;;7.15;3.05;;;;;;;21.74;47.71;98990.31;5164678;28;20559;-68
2022/07/28 07:11:44;;;;;;;8.73;2.85;;;;;;;22.08;46.53;98996.34;5169764;28;20057;-68
2022/07/28 07:14:34;;;;;;;9.60;2.83;;;;;;;22.25;47.23;98988.56;5182243;28;20070;-68
2022/07/28 07:17:24;;;;;;;4.88;3.17;;;;;;;22.81;46.46;98990.34;5185742;28;20060;-67
2022/07/28 07:20:15;;;;;;;5.18;3.10;;;;;;;22.72;45.87;98964.69;5180966;28;20057;-68
2022/07/28 07:23:07;;;;;;;6.40;3.53;;;;;;;24.00;43.87;98971.03;5179962;28;20056;-68
2022/07/28 07:25:58;;;;;;;6.15;3.10;;;;;;;25.15;41.59;98959.72;5180338;28;20072;-68
2022/07/28 07:28:48;;;;;;;5.93;3.50;;;;;;;26.11;39.19;98964.53;5173208;28;20171;-68
2022/07/28 07:31:39;;;;;;;8.20;4.65;;;;;;;26.18;39.96;98955.16;5167482;28;20064;-68
2022/07/28 07:34:29;;;;;;;6.43;3.85;;;;;;;26.12;39.59;98969.72;5174523;28;20083;-69
2022/07/28 07:37:20;;;;;;;7.05;3.80;;;;;;;26.81;39.03;98958.59;5168950;28;20184;-70
2022/07/28 07:40:10;;;;;;;5.82;3.60;;;;;;;27.31;37.30;98957.63;5170255;28;20065;-70
2022/07/28 07:43:00;;;;;;;15.43;4.28;;;;;;;27.86;37.34;98970.28;5176401;28;20060;-69
2022/07/28 07:45:50;;;;;;;9.45;3.53;;;;;;;28.23;36.36;98969.53;5176392;28;20053;-71
2022/07/28 07:48:40;;;;;;;7.40;3.92;;;;;;;28.54;36.54;98959.72;5183308;28;20064;-68
2022/07/28 07:51:31;;;;;;;6.18;3.85;;;;;;;28.68;35.58;98959.25;5177088;28;20519;-69
2022/07/28 07:54:21;;;;;;;9.10;3.20;;;;;;;29.27;35.10;98968.06;5173488;28;20060;-69
2022/07/28 07:57:11;;;;;;;11.43;4.05;;;;;;;29.33;34.99;98966.16;5169953;28;20071;-69
2022/07/28 08:00:03;;;;;;;8.85;4.13;;;;;;;29.81;34.76;98963.34;5169493;28;20056;-68
2022/07/28 08:02:53;;;;;;;7.28;3.78;;;;;;;29.10;34.87;98958.41;5176844;28;20934;-69
2022/07/28 08:05:44;;;;;;;10.38;3.80;;;;;;;29.15;34.40;98958.47;5175243;28;20161;-70
2022/07/28 08:08:34;;;;;;;5.68;3.40;;;;;;;29.83;34.80;98958.41;5178660;28;20491;-71
2022/07/28 08:11:35;;;;;;;8.77;3.60;;;;;;;30.45;33.16;98960.13;5181996;28;20168;-68
2022/07/28 08:14:26;;;;;;;5.88;3.40;;;;;;;30.69;33.00;98954.88;5178161;28;20083;-69
2022/07/28 08:17:16;;;;;;;4.43;3.13;;;;;;;31.00;33.06;98955.66;5178666;28;20148;-68
2022/07/28 08:20:12;;;;;;;6.88;3.53;;;;;;;31.35;32.27;98956.66;5173329;28;20049;-68
2022/07/28 08:23:02;;;;;;;12.02;3.83;;;;;;;31.26;31.97;98953.66;5170064;28;20060;-68
2022/07/28 08:25:54;;;;;;;11.95;3.75;;;;;;;31.71;32.42;98954.53;5170595;28;20056;-68
2022/07/28 08:28:44;;;;;;;7.10;3.20;;;;;;;32.20;32.05;98950.94;5166227;28;20444;-68
2022/07/28 08:31:34;;;;;;;6.18;3.60;;;;;;;31.62;32.65;98955.41;5168309;28;20065;-68
2022/07/28 08:34:25;;;;;;;9.85;3.92;;;;;;;31.73;32.33;98952.34;5169606;28;20084;-68
2022/07/28 08:37:22;;;;;;;9.13;3.45;;;;;;;32.47;31.40;98955.13;5173445;28;20069;-68
2022/07/28 08:40:16;;;;;;;4.90;3.33;;;;;;;32.36;31.06;98945.31;5181924;28;20432;-68
2022/07/28 08:43:22;;;;;;;;;;;;;;;31.95;31.69;98951.94;5178111;28;20058;-68
2022/07/28 08:46:13;;;;;;;7.45;3.05;;;;;;;32.27;31.66;98948.69;5172963;28;20520;-68
2022/07/28 08:49:08;;;;;;;7.03;3.72;;;;;;;32.50;30.39;98941.66;5180422;28;20533;-68
2022/07/28 08:52:00;;;;;;;5.75;3.33;;;;;;;31.71;31.74;98938.09;5175881;28;20136;-68
2022/07/28 08:54:52;;;;;;;6.55;3.90;;;;;;;30.80;33.34;98947.53;5172632;28;20045;-67
2022/07/28 08:57:42;;;;;;;5.53;3.60;;;;;;;31.72;33.26;98947.97;5169896;28;20515;-68
2022/07/28 09:00:32;;;;;;;7.68;3.60;;;;;;;32.24;32.20;98932.78;5185970;28;20064;-68
2022/07/28 09:03:23;;;;;;;9.40;3.28;;;;;;;32.68;32.08;98931.88;5169053;28;20068;-68
2022/07/28 09:06:13;;;;;;;10.70;3.63;;;;;;;33.06;31.14;98915.53;5174701;28;20060;-68
2022/07/28 09:09:04;;;;;;;6.97;3.75;;;;;;;32.71;29.99;98924.97;5176932;28;20068;-68
2022/07/28 09:11:54;;;;;;;8.93;3.63;;;;;;;32.43;30.65;98888.22;5177003;28;20191;-68
2022/07/28 09:14:44;;;;;;;6.82;3.72;;;;;;;32.52;32.24;98916.66;5175967;28;20049;-68
2022/07/28 09:17:36;;;;;;;8.75;3.97;;;;;;;33.50;30.35;98919.09;5177176;28;20091;-67
2022/07/28 09:20:27;;;;;;;6.60;3.60;;;;;;;33.48;29.81;98922.13;5174407;28;20194;-68
2022/07/28 09:23:17;;;;;;;9.15;3.80;;;;;;;33.18;29.58;98909.63;5168748;28;20092;-68
2022/07/28 09:26:28;;;;;;;9.48;3.95;;;;;;;34.03;28.97;98914.19;5169790;28;20107;-69
2022/07/28 09:29:23;;;;;;;8.27;3.80;;;;;;;33.94;30.02;98912.38;5167320;28;20685;-68
2022/07/28 09:32:15;;;;;;;8.60;3.72;;;;;;;33.47;30.01;98912.25;5162433;28;20053;-68
2022/07/28 09:35:19;;;;;;;6.85;3.60;;;;;;;34.05;28.96;98913.91;5165054;28;20057;-68
2022/07/28 09:38:08;;;;;;;3.85;3.38;;;;;;;34.09;29.38;98904.75;5167372;28;20103;-68
2022/07/28 09:41:05;;;;;;;6.82;3.88;;;;;;;33.64;28.80;98898.84;5170915;28;20052;-68
2022/07/28 09:43:56;;;;;;;14.00;3.90;;;;;;;33.60;28.72;98900.53;5179102;28;20807;-73
2022/07/28 09:46:46;;;;;;;6.28;3.60;;;;;;;34.05;28.24;98895.47;5171445;28;20754;-67
2022/07/28 09:49:41;;;;;;;7.75;3.78;;;;;;;33.42;30.33;98888.41;5176154;28;20057;-66
2022/07/28 09:52:36;;;;;;;7.97;3.90;;;;;;;33.05;29.88;98894.69;5176941;28;20053;-65
2022/07/28 09:55:26;;;;;;;8.10;3.83;;;;;;;31.85;31.53;98885.38;5194513;23;20433;-83
2022/07/28 09:58:16;;;;;;;8.13;3.80;;;;;;;32.77;31.06;98830.44;5192120;28;20417;-83
2022/07/28 10:01:11;;;;;;;8.77;3.53;;;;;;;33.77;29.67;98882.69;5181684;28;20048;-83
2022/07/28 10:04:02;;;;;;;10.82;3.97;;;;;;;33.78;29.49;98862.34;5191427;28;20190;-82
2022/07/28 10:07:00;;;;;;;4.28;3.05;;;;;;;34.14;28.97;98870.84;5180596;28;20199;-82
2022/07/28 10:10:03;;;;;;;6.40;3.38;;;;;;;34.04;28.58;98855.31;5187605;28;20500;-82
2022/07/28 10:13:04;;;;;;;5.60;3.13;;;;;;;34.29;28.29;98847.72;5189255;28;21187;-82
2022/07/28 10:16:17;;;;;;;4.20;3.10;;;;;;;33.18;29.38;98761.28;5191280;28;20064;-81
2022/07/28 10:19:08;;;;;;;3.88;2.92;;;;;;;34.18;28.57;98865.53;5193732;28;20072;-86
2022/07/28 10:22:00;;;;;;;5.43;3.40;;;;;;;34.12;28.06;98859.31;5196948;28;21924;-85
2022/07/28 10:24:52;;;;;;;5.22;3.50;;;;;;;33.58;28.79;98861.53;5194080;28;20851;-85
2022/07/28 10:27:49;;;;;;;4.63;3.33;;;;;;;34.51;28.79;98849.78;5194085;28;20542;-85
2022/07/28 10:30:40;;;;;;;5.13;3.38;;;;;;;34.64;28.10;98795.84;5178595;28;20045;-85
2022/07/28 10:33:31;;;;;;;5.28;3.28;;;;;;;34.68;27.35;98824.44;5182157;28;20045;-85
2022/07/28 10:36:23;;;;;;;9.98;3.55;;;;;;;34.26;27.59;98821.63;5186165;28;20061;-87
2022/07/28 10:39:18;;;;;;;4.95;2.92;;;;;;;34.34;27.93;98834.69;5172193;28;20048;-84
2022/07/28 10:42:11;;;;;;;5.72;3.10;;;;;;;33.88;28.89;98832.72;5165311;28;20073;-87
2022/07/28 10:45:03;;;;;;;9.50;3.30;;;;;;;34.76;27.97;98842.97;5193027;28;20095;-89
2022/07/28 10:47:53;;;;;;;6.82;2.90;;;;;;;34.29;29.24;98814.69;5176882;28;20064;-85
2022/07/28 10:50:44;;;;;;;7.32;3.60;;;;;;;35.02;27.16;98810.22;5208831;28;20426;-85
2022/07/28 10:53:52;;;;;;;4.03;3.10;;;;;;;33.94;28.91;98838.94;5196877;28;20057;-84
2022/07/28 10:56:51;;;;;;;5.63;3.35;;;;;;;33.65;28.42;98819.91;5176035;28;20816;-87
2022/07/28 11:00:05;;;;;;;3.13;2.78;;;;;;;34.21;27.10;98829.16;5185946;28;20131;-84
2022/07/28 11:03:05;;;;;;;5.85;3.30;;;;;;;33.74;28.16;98818.09;5197043;28;20102;-89
2022/07/28 11:06:26;;;;;;;4.35;3.33;;;;;;;34.20;27.61;98833.03;5193702;28;20085;-90
2022/07/28 11:09:16;;;;;;;8.47;4.00;;;;;;;33.78;27.95;98829.34;5195292;28;20171;-87
2022/07/28 11:12:08;;;;;;;6.70;3.25;;;;;;;33.01;29.67;98826.88;5190095;23;20084;-68
2022/07/28 11:14:59;;;;;;;8.50;3.13;;;;;;;33.32;28.90;98819.84;5197103;28;20045;-68
2022/07/28 11:18:09;;;;;;;15.43;3.10;;;;;;;32.81;29.41;98814.19;5196965;28;20052;-68
2022/07/28 11:21:03;;;;;;;6.50;3.20;;;;;;;32.35;30.41;98815.56;5187239;28;20459;-69
2022/07/28 11:23:57;;;;;;;5.90;2.90;;;;;;;32.51;29.94;98813.47;5196572;28;20460;-68
2022/07/28 11:26:47;;;;;;;12.30;3.40;;;;;;;33.19;30.02;98810.41;5199170;28;20052;-69
2022/07/28 11:29:47;;;;;;;7.63;3.10;;;;;;;32.43;29.71;98797.66;5197855;28;20053;-68
2022/07/28 11:32:49;;;;;;;5.25;3.33;;;;;;;32.94;29.91;98810.72;5179515;28;20088;-68
2022/07/28 11:35:39;;;;;;;3.10;2.50;;;;;;;32.12;29.64;98810.84;5200779;28;20053;-68
2022/07/28 11:38:30;;;;;;;5.90;3.45;;;;;;;32.72;29.24;98803.88;5201275;28;20076;-68
2022/07/28 11:41:29;;;;;;;4.15;2.88;;;;;;;31.61;30.32;98816.75;5184711;28;20050;-68
2022/07/28 11:44:29;;;;;;;4.05;3.30;;;;;;;31.09;30.93;98816.25;5193616;28;20069;-68
2022/07/28 11:47:22;;;;;;;6.93;3.40;;;;;;;30.98;31.64;98817.41;5197537;28;20049;-68
2022/07/28 11:50:14;;;;;;;6.45;3.13;;;;;;;31.48;31.73;98820.97;5198049;28;20535;-69
2022/07/28 11:53:05;;;;;;;5.20;3.10;;;;;;;32.64;29.35;98811.94;5184830;28;20061;-68
2022/07/28 11:55:55;;;;;;;6.20;3.15;;;;;;;32.02;29.02;98801.63;5194296;28;20140;-69
2022/07/28 11:58:56;;;;;;;3.53;3.22;;;;;;;30.57;31.60;98801.97;5178549;28;20558;-69
2022/07/28 12:01:53;;;;;;;;;;;;;;;31.24;31.56;98801.66;5171303;28;20151;-69
2022/07/28 12:04:43;;;;;;;4.95;3.13;;;;;;;31.49;31.47;98798.78;5174824;28;20063;-68
2022/07/28 12:07:37;;;;;;;11.05;3.28;;;;;;;31.39;30.75;98800.75;5180603;28;20069;-69
2022/07/28 12:10:35;;;;;;;3.50;2.95;;;;;;;31.21;31.09;98792.06;5179856;28;20212;-70
2022/07/28 12:13:44;;;;;;;3.92;3.30;;;;;;;31.89;31.18;98796.81;5180810;28;20108;-71
2022/07/28 12:16:37;;;;;;;7.68;3.20;;;;;;;32.11;31.66;98803.72;5180249;28;20569;-69
2022/07/28 12:19:30;;;;;;;7.43;3.53;;;;;;;32.60;29.31;98783.44;5181276;28;20103;-69
2022/07/28 12:22:22;;;;;;;5.05;3.40;;;;;;;32.42;30.72;98787.75;5175845;28;20431;-68
2022/07/28 12:25:14;;;;;;;6.72;3.00;;;;;;;32.97;29.10;98782.72;5170828;28;20049;-69
2022/07/28 12:28:16;;;;;;;5.93;2.90;;;;;;;32.93;28.85;98781.63;5169959;28;20064;-70
2022/07/28 12:31:11;;;;;;;9.20;3.13;;;;;;;32.51;29.20;98775.84;5185851;28;20495;-69
2022/07/28 12:34:06;;;;;;;7.07;3.20;;;;;;;32.82;29.74;98767.25;5171610;28;20771;-68
2022/07/28 12:37:00;;;;;;;6.05;3.65;;;;;;;32.22;29.54;98772.31;5169005;28;20072;-69
2022/07/28 12:39:51;;;;;;;9.48;3.25;;;;;;;31.84;30.04;98761.19;5176147;28;20107;-67
2022/07/28 12:42:43;;;;;;;3.97;3.17;;;;;;;31.96;30.15;98764.38;5192063;28;20049;-69
2022/07/28 12:45:44;;;;;;;5.60;3.10;;;;;;;31.89;30.05;98768.56;5183242;28;20061;-69
2022/07/28 12:48:39;;;;;;;7.22;3.28;;;;;;;32.13;29.19;98763.94;5180933;28;20119;-68
2022/07/28 12:51:40;;;;;;;4.88;3.13;;;;;;;31.85;30.39;98762.81;5178400;28;20517;-68
2022/07/28 12:54:36;;;;;;;5.53;3.20;;;;;;;32.13;29.63;98757.63;5178558;28;20088;-69
2022/07/28 12:57:40;;;;;;;5.78;3.13;;;;;;;31.92;29.97;98759.75;5178001;28;20080;-69
2022/07/28 13:00:48;;;;;;;6.40;3.20;;;;;;;31.73;29.71;98754.16;5180465;28;20802;-70
2022/07/28 13:03:45;;;;;;;6.15;3.22;;;;;;;31.39;30.38;98748.69;5177606;28;20118;-69
2022/07/28 13:06:53;;;;;;;;;;;;;;;31.17;30.41;98758.16;5176672;28;20131;-69
2022/07/28 13:09:47;;;;;;;5.20;3.70;;;;;;;31.38;30.58;98752.53;5172927;28;20382;-69
2022/07/28 13:13:03;;;;;;;5.43;3.30;;;;;;;31.69;30.57;98756.66;5191225;28;20045;-70
2022/07/28 13:16:20;;;;;;;4.85;3.00;;;;;;;31.61;30.50;98757.28;5170241;28;20049;-68
2022/07/28 13:19:19;;;;;;;4.30;3.20;;;;;;;31.61;29.68;98759.19;5172088;28;20049;-67
2022/07/28 13:22:10;;;;;;;5.65;3.03;;;;;;;31.84;29.23;98742.00;5164476;28;20052;-67
2022/07/28 13:25:01;;;;;;;7.32;3.33;;;;;;;31.52;29.25;98742.56;5168069;28;20057;-68
2022/07/28 13:27:51;;;;;;;5.53;3.15;;;;;;;31.75;29.33;98725.34;5167039;28;21619;-68
2022/07/28 13:30:44;;;;;;;4.03;3.03;;;;;;;31.86;29.54;98736.22;5167774;28;20068;-67
2022/07/28 13:33:34;;;;;;;6.45;2.65;;;;;;;31.99;29.27;98728.16;5170786;28;20541;-68
2022/07/28 13:36:25;;;;;;;6.88;3.35;;;;;;;32.00;29.11;98735.28;5179795;28;20244;-67
2022/07/28 13:39:15;;;;;;;7.80;3.35;;;;;;;32.13;29.09;98736.50;5177216;28;20088;-67